Flight Track Log - Related Links

Times and Time Zones

All times are in EDT time to prevent confusion due to time zone crossing. See the N201FR flight status page for this flight to view local times or setup timezone preferences in your user account.

Time Position Orientation Groundspeed Altitude Reporting Facility
EDT Latitude Longitude Course Direction KTS MPH feet Rate Location/Type
Mon 07:58:26 AM 38.7167 -90.3167 165° South 169 194 2,300  Level Gateway (St. Louis) TRACON
Mon 07:59:26 AM 38.6667 -90.3000 165° South 231 266 3,300 1,500 Climbing Gateway (St. Louis) TRACON
Mon 07:59:58 AM 38.6358 -90.3236 211° Southwest 247 284 4,600 2,362 Climbing Kansas City Center
Mon 08:01:00 AM 38.5761 -90.3550 202° Southwest 265 305 7,000 2,390 Climbing Kansas City Center
Mon 08:02:01 AM 38.5031 -90.3933 202° Southwest 276 318 9,500 2,016 Climbing Kansas City Center
Mon 08:03:02 AM 38.4267 -90.4347 203° Southwest 291 335 11,100 1,721 Climbing Kansas City Center
Mon 08:04:03 AM 38.3372 -90.4814 202° Southwest 332 382 13,000 2,016 Climbing Kansas City Center
Mon 08:05:04 AM 38.2442 -90.5292 202° Southwest 354 407 15,200 2,066 Climbing Kansas City Center
Mon 08:06:05 AM 38.1244 -90.5636 193° South 375 432 17,200 1,623 Climbing Kansas City Center
Mon 08:07:06 AM 38.0156 -90.5761 185° South 389 448 18,500 1,426 Climbing Kansas City Center
Mon 08:08:07 AM 37.9053 -90.5881 185° South 395 455 20,100 1,377 Climbing Kansas City Center
Mon 08:09:08 AM 37.7906 -90.6000 185° South 407 468 21,300 1,230 Climbing Kansas City Center
Mon 08:10:09 AM 37.6739 -90.6131 185° South 417 480 22,600 1,180 Climbing Kansas City Center
Mon 08:11:10 AM 37.5542 -90.6286 186° South 427 491 23,700 1,131 Climbing Kansas City Center
Mon 08:12:11 AM 37.4308 -90.6422 185° South 440 506 24,900 1,073 Climbing Kansas City Center
Mon 08:13:13 AM 37.2869 -90.6556 184° South 450 518 25,900 1,073 Climbing Kansas City Center
Mon 08:14:14 AM 37.1642 -90.6217 168° South 461 531 27,100 934 Climbing Kansas City Center
Mon 08:15:15 AM 37.0644 -90.5089 138° Southeast 477 549 27,800 639 Climbing Kansas City Center
Mon 08:16:16 AM 36.9639 -90.3917 137° Southeast 487 560 28,400 639 Climbing Kansas City Center
Mon 08:17:17 AM 36.8414 -90.3189 155° Southeast 487 560 29,100 750 Climbing Kansas City Center
Mon 08:18:08 AM 36.7297 -90.3025 173° South 479 551 29,800 973 Climbing Memphis Center
Mon 08:19:08 AM 36.5942 -90.2794 172° South 486 559 30,900 1,200 Climbing Memphis Center
Mon 08:20:08 AM 36.4567 -90.2536 171° South 497 572 32,200 1,250 Climbing Memphis Center
Mon 08:21:08 AM 36.3253 -90.2281 171° South 497 572 33,400 950 Climbing Memphis Center
Mon 08:22:08 AM 36.1939 -90.2053 172° South 492 566 34,100 600 Climbing Memphis Center
Mon 08:23:08 AM 36.0606 -90.1797 171° South 486 559 34,600 450 Climbing Memphis Center
Mon 08:24:08 AM 35.9269 -90.1544 171° South 486 559 35,000 200 Climbing Memphis Center
Mon 08:25:08 AM 35.7914 -90.1267 171° South 486 559 35,000  Level Memphis Center
Mon 08:26:08 AM 35.6536 -90.0989 171° South 472 543 35,000  Level Memphis Center
Mon 08:27:08 AM 35.5222 -90.0789 173° South 463 533 35,000  Level Memphis Center
Mon 08:28:08 AM 35.3889 -90.0769 179° South 474 545 35,000  Level Memphis Center
Mon 08:29:08 AM 35.2575 -90.0800 181° South 474 545 35,000  Level Memphis Center
Mon 08:30:08 AM 35.1239 -90.0828 181° South 474 545 35,000  Level Memphis Center
Mon 08:31:08 AM 34.9883 -90.0833 180° South 474 545 35,000  Level Memphis Center
Mon 08:32:08 AM 34.8528 -90.0889 182° South 479 551 35,000  Level Memphis Center
Mon 08:33:08 AM 34.7150 -90.0842 178° South 486 559 35,000  Level Memphis Center
Mon 08:34:08 AM 34.5794 -90.0847 180° South 491 565 35,000  Level Memphis Center
Mon 08:35:08 AM 34.4436 -90.0825 179° South 491 565 35,000  Level Memphis Center
Mon 08:36:08 AM 34.3081 -90.0831 180° South 491 565 35,000  Level Memphis Center
Mon 08:37:08 AM 34.1725 -90.0836 180° South 491 565 35,000  Level Memphis Center
Mon 08:38:08 AM 34.0347 -90.0839 180° South 496 571 35,000  Level Memphis Center
Mon 08:40:08 AM 33.7697 -90.0872 181° South 486 559 35,000  Level Memphis Center
Mon 08:41:08 AM 33.6339 -90.0853 179° South 481 554 35,000  Level Memphis Center
Mon 08:42:08 AM 33.4983 -90.0856 180° South 481 554 35,000  Level Memphis Center
Mon 08:43:08 AM 33.3647 -90.0886 181° South 481 554 35,000  Level Memphis Center
Mon 08:44:08 AM 33.2289 -90.0892 180° South 481 554 35,000  Level Memphis Center
Mon 08:45:08 AM 33.0933 -90.0919 181° South 481 554 35,000  Level Memphis Center
Mon 08:46:08 AM 32.9556 -90.0922 180° South 481 554 35,000  Level Memphis Center
Mon 08:47:08 AM 32.8303 -90.0928 180° South 491 565 35,000  Level Memphis Center
Mon 08:48:08 AM 32.6967 -90.0906 179° South 491 565 35,000  Level Memphis Center
Mon 08:49:08 AM 32.5611 -90.0911 180° South 491 565 35,000  Level Memphis Center
Mon 08:50:08 AM 32.4275 -90.0914 180° South 491 565 35,000  Level Memphis Center
Mon 08:51:08 AM 32.2897 -90.0919 180° South 491 565 35,000  Level Memphis Center
Mon 08:52:08 AM 32.1561 -90.0922 180° South 491 565 35,000  Level Memphis Center
Mon 08:53:08 AM 32.0244 -90.0928 180° South 491 565 35,000  Level Memphis Center
Mon 08:55:14 AM 31.7283 -90.0931 180° South 485 558 35,000  Level Houston Center
Mon 08:56:16 AM 31.5944 -90.0942 180° South 482 555 35,000  Level Houston Center
Mon 08:57:18 AM 31.4606 -90.0950 180° South 481 554 35,000 -48 Level Houston Center
Mon 08:58:20 AM 31.3281 -90.0950 180° South 479 551 34,900 -48 Descending Houston Center
Mon 08:59:22 AM 31.1956 -90.0794 174° South 478 550 34,900 48 Level Houston Center
Mon 09:00:24 AM 31.0636 -90.0619 174° South 478 550 35,000 48 Climbing Houston Center
Mon 09:01:26 AM 30.9050 -90.0425 174° South 479 551 35,000  Level Houston Center
Mon 09:02:28 AM 30.7742 -90.0253 174° South 475 547 35,000  Level Houston Center
Mon 09:03:30 AM 30.6436 -90.0089 174° South 473 544 35,000 -49 Level Houston Center
Mon 09:04:31 AM 30.5133 -89.9936 174° South 472 543 34,900  Descending Houston Center
Mon 09:05:33 AM 30.3828 -89.9786 174° South 478 550 35,000 48 Climbing Houston Center
Mon 09:06:35 AM 30.2278 -89.9586 174° South 479 551 35,000 97 Level Houston Center
Mon 09:07:37 AM 30.0983 -89.9419 174° South 474 545 35,200 339 Climbing Houston Center
Mon 09:08:39 AM 29.9725 -89.9053 166° South 471 542 35,700 629 Climbing Houston Center
Mon 09:09:41 AM 29.8494 -89.8542 160° South 468 539 36,500 581 Climbing Houston Center
Mon 09:10:43 AM 29.7272 -89.7997 159° South 471 542 36,900 242 Climbing Houston Center
Mon 09:11:45 AM 29.5806 -89.7369 160° South 471 542 37,000 48 Climbing Houston Center
Mon 09:12:47 AM 29.4614 -89.6836 159° South 461 531 37,000 -48 Level Houston Center
Mon 09:13:49 AM 29.3428 -89.6314 159° South 458 527 36,900  Descending Houston Center
Mon 09:14:51 AM 29.2247 -89.5800 159° South 455 524 37,000 48 Climbing Houston Center
Mon 09:15:53 AM 29.1061 -89.5267 159° South 457 526 37,000  Level Houston Center
Mon 09:16:55 AM 28.9875 -89.4758 159° South 454 522 37,000  Level Houston Center
Mon 09:17:57 AM 28.8444 -89.4131 159° South 458 527 37,000  Level Houston Center
Mon 09:18:59 AM 28.7256 -89.3644 160° South 455 524 37,000 -48 Level Houston Center
Mon 09:20:01 AM 28.6064 -89.3156 160° South 455 524 36,900  Descending Houston Center
Mon 09:21:03 AM 28.4819 -89.2753 164° South 463 533 37,000 48 Climbing Houston Center
Mon 09:22:05 AM 28.3569 -89.2442 168° South 462 532 37,000  Level Houston Center
Mon 09:23:07 AM 28.2333 -89.2078 165° South 459 528 37,000  Level Houston Center
Mon 09:24:10 AM 28.0850 -89.1675 167° South 457 526 37,000 -48 Level Houston Center
Mon 09:25:12 AM 27.9619 -89.1333 166° South 456 525 36,900  Descending Houston Center
Mon 09:26:14 AM 27.8381 -89.0986 166° South 458 527 37,000 97 Climbing Houston Center
Mon 09:28:00 AM 27.6277 -89.0452 167° South  Level FlightAware Approximate
Mon 09:35:00 AM 26.7939 -88.8357 167° South  Level FlightAware Approximate
Mon 09:36:00 AM 26.6748 -88.8061 167° South  Level FlightAware Approximate
Mon 09:37:00 AM 26.5550 -88.7753 166° South  Level FlightAware Approximate
Mon 09:38:00 AM 26.4368 -88.7416 166° South  Level FlightAware Approximate
Mon 09:39:00 AM 26.3185 -88.7080 166° South  Level FlightAware Approximate
Mon 09:40:00 AM 26.2002 -88.6745 166° South  Level FlightAware Approximate
Mon 09:41:00 AM 26.0819 -88.6410 166° South  Level FlightAware Approximate
Mon 09:42:00 AM 25.9636 -88.6076 166° South  Level FlightAware Approximate
Mon 09:43:00 AM 25.8453 -88.5743 166° South  Level FlightAware Approximate
Mon 09:44:00 AM 25.7270 -88.5410 166° South  Level FlightAware Approximate
Mon 09:45:00 AM 25.6087 -88.5078 166° South  Level FlightAware Approximate
Mon 09:46:00 AM 25.4904 -88.4747 166° South  Level FlightAware Approximate
Mon 09:47:00 AM 25.3720 -88.4416 166° South  Level FlightAware Approximate
Mon 09:48:00 AM 25.2537 -88.4086 166° South  Level FlightAware Approximate
Mon 09:49:00 AM 25.1354 -88.3757 166° South  Level FlightAware Approximate
Mon 09:50:00 AM 25.0170 -88.3428 166° South  Level FlightAware Approximate
Mon 09:51:00 AM 24.8986 -88.3100 166° South  Level FlightAware Approximate
Mon 09:52:00 AM 24.7803 -88.2773 166° South  Level FlightAware Approximate
Mon 09:53:00 AM 24.6619 -88.2446 166° South  Level FlightAware Approximate
Mon 09:54:00 AM 24.5435 -88.2120 166° South  Level FlightAware Approximate
Mon 09:55:00 AM 24.4267 -88.1733 162° South  Level FlightAware Approximate
Mon 09:56:00 AM 24.3109 -88.1310 160° South  Level FlightAware Approximate
Mon 09:57:00 AM 24.1962 -88.0853 160° South  Level FlightAware Approximate
Mon 09:58:00 AM 24.0815 -88.0397 160° South  Level FlightAware Approximate
Mon 09:59:00 AM 23.9668 -87.9941 160° South  Level FlightAware Approximate
Mon 10:00:00 AM 23.8520 -87.9486 160° South  Level FlightAware Approximate
Mon 10:01:00 AM 23.7373 -87.9032 160° South  Level FlightAware Approximate
Mon 10:02:00 AM 23.6225 -87.8579 160° South  Level FlightAware Approximate
Mon 10:03:00 AM 23.5077 -87.8126 160° South  Level FlightAware Approximate
Mon 10:04:00 AM 23.3929 -87.7677 161° South  Level FlightAware Approximate
Mon 10:05:00 AM 23.2778 -87.7235 161° South  Level FlightAware Approximate
Mon 10:06:00 AM 23.1637 -87.6764 158° South  Level FlightAware Approximate
Mon 10:07:00 AM 23.0504 -87.6273 161° South  Level FlightAware Approximate
Mon 10:08:00 AM 22.9348 -87.5847 161° South  Level FlightAware Approximate
Mon 10:09:00 AM 22.8192 -87.5421 161° South  Level FlightAware Approximate
Mon 10:10:00 AM 22.7032 -87.5011 163° South  Level FlightAware Approximate
Mon 10:11:00 AM 22.5927 -87.4473 161° South  Level FlightAware Approximate
Mon 10:12:00 AM 22.4770 -87.4053 161° South  Level FlightAware Approximate
Mon 10:13:00 AM 22.3615 -87.3626 161° South  Level FlightAware Approximate
Mon 10:14:00 AM 22.2458 -87.3208 163° South  Level FlightAware Approximate
Mon 10:15:00 AM 22.1300 -87.2794 160° South  Level FlightAware Approximate
Mon 10:16:00 AM 22.0150 -87.2351 160° South  Level FlightAware Approximate
Mon 10:17:00 AM 21.9001 -87.1909 160° South  Level FlightAware Approximate
Mon 10:18:00 AM 21.7851 -87.1468 160° South  Level FlightAware Approximate
Mon 10:19:00 AM 21.6690 -87.1063 163° South  Level FlightAware Approximate
Mon 10:20:00 AM 21.5670 -87.0565 164° South  Level FlightAware Approximate
Mon 10:21:00 AM 21.4497 -87.0204 164° South  Level FlightAware Approximate
Mon 10:22:00 AM 21.3344 -86.9782 157° South  Level FlightAware Approximate
Mon 10:23:00 AM 21.2214 -86.9286 160° South  Level FlightAware Approximate
Mon 10:24:00 AM 21.1050 -86.8910 169° South  Level FlightAware Approximate
Mon 10:25:00 AM 21.0365 -86.8771 270° West  Level Estimated
Mon 10:26:00 AM 21.0365 -86.8771 270° West  Level Estimated
Mon 10:27:00 AM 21.0365 -86.8771 270° West  Level Estimated
Mon 10:28:00 AM 21.0365 -86.8771 270° West  Level Estimated
Mon 10:29:00 AM 21.0365 -86.8771 270° West  Level Estimated
Mon 10:30:00 AM 21.0365 -86.8771 270° West  Level Estimated
Mon 10:31:00 AM 21.0365 -86.8771 270° West  Level Estimated
Mon 10:32:00 AM 21.0365 -86.8771 270° West  Level Estimated
Mon 10:33:00 AM 21.0365 -86.8771 270° West  Level Estimated
Mon 10:34:00 AM 21.0365 -86.8771 270° West  Level Estimated
Mon 10:35:00 AM 21.0365 -86.8771 270° West  Level Estimated
Mon 10:36:00 AM 21.0365 -86.8771 270° West  Level Estimated
Mon 10:37:00 AM 21.0365 -86.8771 270° West  Level Estimated
Mon 10:38:00 AM 21.0365 -86.8771 270° West  Level Estimated
Mon 10:39:00 AM 21.0365 -86.8771 270° West  Level Estimated
Mon 10:40:00 AM 21.0365 -86.8771 270° West  Level Estimated
Mon 10:41:00 AM 21.0365 -86.8771 270° West  Level Estimated
Mon 10:42:00 AM 21.0365 -86.8771 270° West  Level Estimated
Mon 10:43:00 AM 21.0365 -86.8771 270° West  Level Estimated
Mon 10:44:00 AM 21.0365 -86.8771 270° West  Level Estimated
Mon 10:45:00 AM 21.0365 -86.8771 270° West  Level Estimated
Mon 10:46:00 AM 21.0365 -86.8771 270° West  Level Estimated

Login

Don't have an account? Register now (free) for customized features, flight alerts, and more!